Time;durP1;ratioP1;P1;durP2;ratioP2;P2;SDS_P1;SDS_P2;PMS_P1;PMS_P2;Temp;Humidity;BMP_temperature;BMP_pressure;BME280_temperature;BME280_humidity;BME280_pressure;Samples;Min_cycle;Max_cycle;Signal;HPM_P1;HPM_P2
2021/07/06 00:01:57;;;;;;;5.80;4.30;;;;;;;21.58;100.00;99332.53;1766613;81;21795;-70
2021/07/06 00:04:23;;;;;;;5.43;3.83;;;;;;;21.77;100.00;99323.89;1763385;79;21146;-68
2021/07/06 00:06:50;;;;;;;6.97;4.60;;;;;;;21.75;100.00;99328.70;1766599;81;20934;-71
2021/07/06 00:09:17;;;;;;;5.37;4.40;;;;;;;21.83;100.00;99328.09;1763375;80;20992;-69
2021/07/06 00:11:44;;;;;;;6.13;4.33;;;;;;;21.87;100.00;99323.80;1766977;81;21296;-72
2021/07/06 00:14:11;;;;;;;5.17;4.20;;;;;;;21.75;100.00;99332.14;1764098;81;21021;-71
2021/07/06 00:16:38;;;;;;;6.60;4.30;;;;;;;21.70;100.00;99325.53;1766534;81;21146;-69
2021/07/06 00:19:06;;;;;;;7.07;4.30;;;;;;;21.68;100.00;99326.91;1733843;81;20933;-70
2021/07/06 00:21:32;;;;;;;8.00;4.30;;;;;;;21.59;100.00;99326.18;1763696;79;21463;-71
2021/07/06 00:23:59;;;;;;;6.07;4.97;;;;;;;21.78;100.00;99318.83;1767066;81;21033;-71
2021/07/06 00:26:26;;;;;;;6.33;4.43;;;;;;;21.92;100.00;99321.09;1764082;80;21107;-71
2021/07/06 00:28:52;;;;;;;4.33;3.83;;;;;;;21.94;100.00;99322.16;1762721;79;21141;-69
2021/07/06 00:31:19;;;;;;;5.10;3.97;;;;;;;22.05;100.00;99323.63;1728834;81;21066;-70
2021/07/06 00:33:45;;;;;;;4.33;3.93;;;;;;;22.03;100.00;99315.94;1729836;81;21101;-71
2021/07/06 00:36:12;;;;;;;8.33;4.50;;;;;;;22.05;100.00;99321.77;1764515;80;21050;-71
2021/07/06 00:38:39;;;;;;;5.50;4.30;;;;;;;22.09;100.00;99312.16;1767008;81;20959;-72
2021/07/06 00:41:05;;;;;;;5.57;4.47;;;;;;;22.15;100.00;99312.12;1731171;82;21214;-71
2021/07/06 00:43:36;;;;;;;7.80;4.00;;;;;;;22.28;100.00;99312.25;1766484;81;21645;-71
2021/07/06 00:46:02;;;;;;;7.30;4.13;;;;;;;22.53;100.00;99317.78;1763806;80;21857;-72
2021/07/06 00:48:29;;;;;;;6.80;4.40;;;;;;;22.61;100.00;99318.23;1763929;79;21120;-71
2021/07/06 00:50:56;;;;;;;6.43;4.07;;;;;;;22.52;100.00;99316.20;1767391;81;21577;-66
2021/07/06 00:53:22;;;;;;;6.00;4.60;;;;;;;22.51;100.00;99313.84;1763057;79;21314;-71
2021/07/06 00:55:55;;;;;;;7.47;4.40;;;;;;;22.68;100.00;99317.34;1767277;81;21764;-71
2021/07/06 00:58:21;;;;;;;6.53;3.57;;;;;;;22.66;100.00;99324.82;1752884;80;21403;-72
2021/07/06 01:00:48;;;;;;;7.50;4.37;;;;;;;22.54;100.00;99319.38;1767703;81;20977;-71
2021/07/06 01:03:14;;;;;;;8.17;3.93;;;;;;;22.51;100.00;99316.50;1763547;80;20925;-67
2021/07/06 01:05:41;;;;;;;5.73;4.00;;;;;;;22.64;100.00;99323.77;1765949;81;21404;-71
2021/07/06 01:08:08;;;;;;;6.50;4.20;;;;;;;22.65;100.00;99325.88;1736901;82;20899;-72
2021/07/06 01:10:36;;;;;;;5.07;4.23;;;;;;;22.68;100.00;99336.72;1760073;81;20970;-74
2021/07/06 01:13:04;;;;;;;5.73;3.53;;;;;;;22.46;100.00;99335.92;1736605;82;21001;-71
2021/07/06 01:15:31;;;;;;;5.93;3.60;;;;;;;22.37;100.00;99344.81;1734957;82;21630;-70
2021/07/06 01:18:11;;;;;;;4.77;4.30;;;;;;;22.59;100.00;99353.05;1759680;81;21508;-70
2021/07/06 01:20:41;;;;;;;8.53;4.03;;;;;;;22.65;100.00;99361.20;1759859;81;20973;-71
2021/07/06 01:23:07;;;;;;;7.33;4.07;;;;;;;22.76;100.00;99352.56;1759025;80;20926;-66
2021/07/06 01:25:36;;;;;;;5.47;3.87;;;;;;;22.83;100.00;99359.65;1736353;82;21376;-72
2021/07/06 01:28:04;;;;;;;6.43;3.90;;;;;;;22.39;100.00;99360.73;1759908;81;21503;-73
2021/07/06 01:30:30;;;;;;;4.77;4.00;;;;;;;22.37;100.00;99369.50;1736792;82;21798;-71
2021/07/06 01:32:57;;;;;;;6.90;3.70;;;;;;;21.93;100.00;99366.44;1759951;81;20918;-71
2021/07/06 01:35:23;;;;;;;6.90;3.67;;;;;;;22.16;100.00;99365.47;1735116;82;20997;-72
2021/07/06 01:37:53;;;;;;;5.77;4.10;;;;;;;22.44;100.00;99375.80;1736772;82;21537;-72
2021/07/06 01:40:22;;;;;;;7.00;4.20;;;;;;;22.36;100.00;99371.91;1756606;81;21008;-73
2021/07/06 01:42:50;;;;;;;4.40;3.87;;;;;;;22.38;100.00;99380.91;1736869;82;21144;-72
2021/07/06 01:45:23;;;;;;;7.40;3.97;;;;;;;22.41;100.00;99377.16;1759296;81;21463;-67
2021/07/06 01:47:53;;;;;;;5.70;4.20;;;;;;;22.10;100.00;99382.75;1736152;82;21100;-73
2021/07/06 01:50:23;;;;;;;10.43;4.10;;;;;;;22.36;100.00;99383.07;1753317;81;20899;-72
2021/07/06 01:52:53;;;;;;;5.97;4.10;;;;;;;22.10;100.00;99377.44;1736031;82;21300;-72
2021/07/06 01:55:23;;;;;;;5.30;3.80;;;;;;;22.21;100.00;99378.16;1751915;81;21663;-67
2021/07/06 01:57:50;;;;;;;5.57;3.50;;;;;;;22.37;100.00;99375.34;1736209;82;20926;-73
2021/07/06 02:00:20;;;;;;;5.53;4.00;;;;;;;22.14;100.00;99398.15;1759327;81;20953;-71
2021/07/06 02:02:49;;;;;;;4.43;3.63;;;;;;;22.27;100.00;99400.13;1735866;82;20930;-68
2021/07/06 02:05:39;;;;;;;4.90;3.57;;;;;;;22.50;100.00;99399.37;1725504;80;20937;-73
2021/07/06 02:08:08;;;;;;;5.23;3.70;;;;;;;22.29;100.00;99416.05;1767139;81;21218;-72
2021/07/06 02:10:35;;;;;;;8.07;4.20;;;;;;;22.30;100.00;99410.19;1763267;79;20949;-68
2021/07/06 02:13:10;;;;;;;6.23;3.83;;;;;;;22.40;100.00;99410.64;1763057;79;21378;-69
2021/07/06 02:15:36;;;;;;;6.20;4.73;;;;;;;22.43;100.00;99406.09;1767007;81;21052;-70
2021/07/06 02:18:04;;;;;;;7.40;4.40;;;;;;;22.50;100.00;99407.85;1761357;80;21020;-70
2021/07/06 02:20:30;;;;;;;4.60;3.83;;;;;;;22.54;100.00;99405.70;1763674;79;21179;-66
2021/07/06 02:22:56;;;;;;;5.87;3.97;;;;;;;22.53;100.00;99409.41;1766382;81;20965;-68
2021/07/06 02:25:23;;;;;;;6.43;4.30;;;;;;;22.53;100.00;99404.64;1763257;79;21480;-72
2021/07/06 02:27:50;;;;;;;5.23;4.40;;;;;;;22.55;100.00;99405.16;1763603;79;20994;-73
2021/07/06 02:30:21;;;;;;;9.73;4.73;;;;;;;22.65;100.00;99416.19;1766623;81;21538;-71
2021/07/06 02:32:48;;;;;;;5.47;4.03;;;;;;;22.74;100.00;99418.50;1730973;81;26958;-67
2021/07/06 02:35:15;;;;;;;5.63;4.37;;;;;;;22.97;100.00;99418.25;1766446;81;20992;-71
2021/07/06 02:37:43;;;;;;;4.87;3.80;;;;;;;23.28;100.00;99414.64;1731555;82;21048;-73
2021/07/06 02:40:11;;;;;;;5.83;4.27;;;;;;;23.58;100.00;99414.73;1766855;79;20998;-73
2021/07/06 02:42:38;;;;;;;5.07;3.70;;;;;;;23.77;100.00;99410.20;1763245;79;21613;-67
2021/07/06 02:45:07;;;;;;;5.40;4.20;;;;;;;23.77;100.00;99416.06;1766876;81;21183;-67
2021/07/06 02:47:36;;;;;;;7.03;3.87;;;;;;;23.66;100.00;99415.94;1763542;80;21262;-72
2021/07/06 02:50:04;;;;;;;5.03;3.90;;;;;;;23.66;100.00;99419.94;1766758;81;21242;-73
2021/07/06 02:52:30;;;;;;;5.80;3.73;;;;;;;23.57;100.00;99421.14;1764413;79;21676;-72
2021/07/06 02:54:57;;;;;;;7.20;3.90;;;;;;;23.39;100.00;99424.05;1766070;81;20930;-71
2021/07/06 02:57:42;;;;;;;5.50;3.50;;;;;;;23.30;100.00;99419.92;1731546;81;21546;-68
2021/07/06 03:00:23;;;;;;;6.90;3.80;;;;;;;23.06;100.00;99425.28;1767118;78;20994;31
2021/07/06 03:02:57;;;;;;;5.37;3.23;;;;;;;23.08;100.00;99429.55;1765418;80;33604;-66
2021/07/06 03:05:25;;;;;;;6.07;3.57;;;;;;;23.13;100.00;99429.47;1763933;80;21921;-72
2021/07/06 03:07:52;;;;;;;6.00;3.07;;;;;;;23.15;100.00;99433.97;1750561;80;21469;-74
2021/07/06 03:10:24;;;;;;;5.43;3.20;;;;;;;23.25;100.00;99437.27;1754614;80;20996;-76
2021/07/06 03:12:52;;;;;;;7.92;3.17;;;;;;;23.22;100.00;99439.19;1752156;80;21525;-69
2021/07/06 03:15:21;;;;;;;7.07;3.03;;;;;;;23.04;100.00;99436.75;1733722;80;21304;-73
2021/07/06 03:17:49;;;;;;;5.55;2.70;;;;;;;23.14;100.00;99431.04;1750560;80;21030;-74
2021/07/06 03:20:17;;;;;;;5.77;2.80;;;;;;;23.23;100.00;99437.31;1765531;80;21021;-75
2021/07/06 03:22:45;;;;;;;6.80;2.83;;;;;;;23.24;100.00;99438.89;1759338;80;21144;-71
2021/07/06 03:25:16;;;;;;;6.23;3.07;;;;;;;23.25;100.00;99437.80;1763905;80;21490;-74
2021/07/06 03:27:43;;;;;;;6.72;3.37;;;;;;;23.05;100.00;99437.00;1762804;80;21657;-73
2021/07/06 03:30:22;;;;;;;5.23;2.73;;;;;;;23.08;100.00;99434.32;1756526;81;21488;-67
2021/07/06 03:32:51;;;;;;;4.30;2.80;;;;;;;23.02;100.00;99442.88;1746011;80;21513;-73
2021/07/06 03:35:17;;;;;;;5.23;3.20;;;;;;;23.00;100.00;99453.02;1748496;80;22248;-73
2021/07/06 03:37:44;;;;;;;3.80;2.93;;;;;;;22.79;100.00;99453.75;1767009;80;21767;-74
2021/07/06 03:40:13;;;;;;;5.47;3.27;;;;;;;22.73;100.00;99456.23;1766114;80;21012;-67
2021/07/06 03:42:40;;;;;;;5.23;3.43;;;;;;;22.78;100.00;99455.38;1761102;80;21849;-72
2021/07/06 03:45:09;;;;;;;4.10;3.33;;;;;;;22.65;100.00;99458.70;1752433;80;20991;-72
2021/07/06 03:47:37;;;;;;;6.00;3.13;;;;;;;22.70;100.00;99452.02;1748436;80;21161;-72
2021/07/06 03:50:05;;;;;;;7.23;3.40;;;;;;;22.77;100.00;99449.81;1756539;80;20917;-65
2021/07/06 03:52:32;;;;;;;5.67;3.00;;;;;;;22.74;100.00;99457.80;1766177;80;21043;-75
2021/07/06 03:54:58;;;;;;;4.10;3.10;;;;;;;22.74;100.00;99454.36;1766836;80;21466;-70
2021/07/06 03:57:29;;;;;;;4.43;3.03;;;;;;;22.74;100.00;99460.47;1759328;80;21074;-65
2021/07/06 03:59:58;;;;;;;6.27;3.20;;;;;;;22.74;100.00;99459.13;1761037;80;21214;-64
2021/07/06 04:02:25;;;;;;;5.03;3.23;;;;;;;22.73;100.00;99454.09;1746452;80;21768;-74
2021/07/06 04:04:52;;;;;;;4.17;2.90;;;;;;;22.83;100.00;99460.63;1754110;80;20877;-74
2021/07/06 04:07:18;;;;;;;7.60;3.70;;;;;;;22.86;100.00;99461.94;1761493;80;20975;-66
2021/07/06 04:09:45;;;;;;;7.17;3.20;;;;;;;22.78;100.00;99460.69;1754726;81;20996;-64
2021/07/06 04:12:13;;;;;;;6.50;3.20;;;;;;;22.79;100.00;99463.59;1759379;80;21594;-73
2021/07/06 04:14:40;;;;;;;5.00;3.27;;;;;;;22.93;100.00;99456.56;1766685;80;21511;-70
2021/07/06 04:17:06;;;;;;;6.20;3.50;;;;;;;22.94;100.00;99455.48;1748331;80;20995;-68
2021/07/06 04:19:35;;;;;;;5.93;3.40;;;;;;;23.05;100.00;99460.13;1756067;80;21001;-71
2021/07/06 04:22:01;;;;;;;3.97;3.10;;;;;;;23.30;100.00;99454.50;1759199;80;21063;-73
2021/07/06 04:24:30;;;;;;;5.13;3.20;;;;;;;23.37;100.00;99447.47;1755707;80;21139;-76
2021/07/06 04:27:00;;;;;;;5.70;3.40;;;;;;;23.43;100.00;99446.33;1743636;80;20990;-64
2021/07/06 04:29:27;;;;;;;5.03;3.52;;;;;;;23.43;100.00;99448.99;1763678;80;21145;-72
2021/07/06 04:31:54;;;;;;;6.10;3.70;;;;;;;23.24;100.00;99445.54;1715676;81;21030;-72
2021/07/06 04:34:21;;;;;;;4.07;3.53;;;;;;;23.41;100.00;99444.52;1742310;80;21962;-73
2021/07/06 04:36:50;;;;;;;4.93;3.30;;;;;;;23.41;100.00;99447.69;1753521;80;20928;-62
2021/07/06 04:39:18;;;;;;;4.10;3.67;;;;;;;23.44;100.00;99445.25;1746548;80;21028;-71
2021/07/06 04:41:46;;;;;;;4.10;3.70;;;;;;;23.61;100.00;99443.42;1736972;80;21281;-69
2021/07/06 04:44:12;;;;;;;5.93;3.87;;;;;;;23.69;100.00;99440.67;1747564;80;21081;-71
2021/07/06 04:46:40;;;;;;;6.10;3.50;;;;;;;23.76;100.00;99439.23;1742847;80;20956;-70
2021/07/06 04:49:08;;;;;;;4.60;3.60;;;;;;;23.55;100.00;99441.36;1748261;80;21139;-63
2021/07/06 04:51:36;;;;;;;5.97;4.17;;;;;;;23.45;100.00;99444.19;1761472;80;21544;-64
2021/07/06 04:54:02;;;;;;;6.53;4.47;;;;;;;23.45;100.00;99445.52;1752578;80;21059;-71
2021/07/06 04:56:30;;;;;;;6.43;4.50;;;;;;;23.42;100.00;99452.73;1747131;80;21485;-69
2021/07/06 04:58:57;;;;;;;5.00;4.50;;;;;;;23.25;100.00;99450.56;1735272;80;20940;-69
2021/07/06 05:01:25;;;;;;;4.87;4.23;;;;;;;23.31;100.00;99450.75;1750800;80;21139;-73
2021/07/06 05:03:52;;;;;;;8.00;5.70;;;;;;;23.35;100.00;99453.63;1750781;80;20990;-75
2021/07/06 05:06:19;;;;;;;9.93;6.00;;;;;;;23.40;100.00;99461.53;1749197;80;21066;-73
2021/07/06 05:08:46;;;;;;;7.40;4.93;;;;;;;23.28;100.00;99462.50;1756058;80;21137;-73
2021/07/06 05:11:14;;;;;;;6.97;5.00;;;;;;;23.22;100.00;99464.45;1768652;80;21020;-74
2021/07/06 05:13:41;;;;;;;6.67;5.73;;;;;;;23.03;100.00;99464.93;1768672;80;21146;-70
2021/07/06 05:16:09;;;;;;;5.60;4.73;;;;;;;23.05;100.00;99464.91;1752666;80;21439;-71
2021/07/06 05:18:35;;;;;;;7.90;4.90;;;;;;;23.23;100.00;99466.56;1768068;80;21101;-69
2021/07/06 05:21:02;;;;;;;6.63;5.07;;;;;;;23.45;100.00;99472.12;1764143;80;21725;-65
2021/07/06 05:23:28;;;;;;;7.70;5.00;;;;;;;23.54;100.00;99467.72;1759676;80;21081;-69
2021/07/06 05:25:55;;;;;;;6.57;5.60;;;;;;;23.66;100.00;99469.97;1754369;81;21135;-65
2021/07/06 05:28:21;;;;;;;7.63;4.90;;;;;;;23.49;100.00;99470.46;1752177;81;21526;-69
2021/07/06 05:30:48;;;;;;;8.50;5.00;;;;;;;22.73;100.00;99481.98;1749930;80;21095;-69
2021/07/06 05:33:14;;;;;;;6.03;5.00;;;;;;;22.96;100.00;99479.91;1750652;80;20984;-69
2021/07/06 05:35:41;;;;;;;6.93;5.07;;;;;;;23.11;100.00;99472.30;1749691;81;21363;-68
2021/07/06 05:38:08;;;;;;;5.37;4.87;;;;;;;23.06;100.00;99473.67;1748303;80;21453;-65
2021/07/06 05:40:38;;;;;;;7.07;5.40;;;;;;;23.30;100.00;99467.80;1749432;80;20956;-70
2021/07/06 05:43:03;;;;;;;6.40;5.70;;;;;;;23.35;100.00;99469.59;1747704;81;21513;-70
2021/07/06 05:45:30;;;;;;;9.40;4.93;;;;;;;23.48;100.00;99478.72;1700262;81;21540;-68
2021/07/06 05:47:57;;;;;;;6.20;4.73;;;;;;;23.24;100.00;99477.45;1766992;80;20908;-68
2021/07/06 05:50:23;;;;;;;7.20;5.13;;;;;;;23.12;100.00;99485.84;1761327;79;22033;-66
2021/07/06 05:52:50;;;;;;;6.33;4.93;;;;;;;23.49;100.00;99485.09;1716694;81;20994;-64
2021/07/06 05:55:19;;;;;;;6.73;5.53;;;;;;;23.33;100.00;99487.69;1758212;80;21054;-71
2021/07/06 05:57:45;;;;;;;7.07;5.10;;;;;;;23.10;100.00;99495.95;1756104;79;20943;-71
2021/07/06 06:00:14;;;;;;;7.87;5.43;;;;;;;23.30;100.00;99494.93;1758774;80;21083;-67
2021/07/06 06:02:40;;;;;;;7.37;5.30;;;;;;;23.40;100.00;99486.80;1749801;79;21525;-71
2021/07/06 06:05:08;;;;;;;8.20;5.07;;;;;;;23.24;100.00;99495.52;1751324;80;21108;-69
2021/07/06 06:07:40;;;;;;;9.13;5.27;;;;;;;23.16;100.00;99494.03;1752448;80;21030;-71
2021/07/06 06:10:09;;;;;;;7.77;6.13;;;;;;;23.46;100.00;99490.98;1734170;80;21569;-69
2021/07/06 06:12:37;;;;;;;6.37;5.37;;;;;;;23.65;100.00;99487.00;1745315;80;21077;-71
2021/07/06 06:15:07;;;;;;;7.40;5.00;;;;;;;23.81;100.00;99491.58;1763871;80;22162;-68
2021/07/06 06:17:34;;;;;;;7.87;6.17;;;;;;;23.81;100.00;99495.57;1755444;80;21045;-69
2021/07/06 06:20:01;;;;;;;7.60;5.13;;;;;;;23.93;100.00;99495.12;1744187;80;21057;-68
2021/07/06 06:22:27;;;;;;;6.17;5.47;;;;;;;24.00;100.00;99496.34;1744849;80;21041;-71
2021/07/06 06:24:54;;;;;;;8.23;5.43;;;;;;;24.19;100.00;99495.52;1767211;80;21477;-68
2021/07/06 06:27:21;;;;;;;6.13;5.30;;;;;;;23.85;100.00;99496.57;1732313;80;21161;-71
2021/07/06 06:29:47;;;;;;;6.20;5.03;;;;;;;23.92;100.00;99502.33;1728734;81;21421;-63
2021/07/06 06:32:16;;;;;;;6.63;4.67;;;;;;;23.91;100.00;99508.73;1715354;81;21585;-70
2021/07/06 06:34:44;;;;;;;9.60;6.13;;;;;;;23.64;100.00;99512.54;1736179;80;21002;-69
2021/07/06 06:37:11;;;;;;;8.70;5.70;;;;;;;23.58;100.00;99508.39;1716249;81;22065;-73
2021/07/06 06:39:37;;;;;;;7.90;5.37;;;;;;;23.85;100.00;99504.55;1737940;80;22203;-71
2021/07/06 06:42:05;;;;;;;8.40;5.87;;;;;;;23.64;100.00;99503.23;1706578;81;21021;-72
2021/07/06 06:44:32;;;;;;;6.80;4.90;;;;;;;23.80;100.00;99501.98;1739254;80;21083;-64
2021/07/06 06:46:58;;;;;;;6.60;5.27;;;;;;;23.82;100.00;99507.00;1697527;81;21481;-73
2021/07/06 06:49:26;;;;;;;8.50;5.20;;;;;;;22.95;100.00;99516.06;1745653;80;21077;-75
2021/07/06 06:51:52;;;;;;;6.33;4.70;;;;;;;23.18;100.00;99525.10;1719763;81;21068;-65
2021/07/06 06:54:18;;;;;;;5.93;4.50;;;;;;;23.64;100.00;99519.19;1705231;81;21361;-70
2021/07/06 06:56:45;;;;;;;7.20;4.30;;;;;;;23.79;100.00;99518.49;1737880;80;21555;-69
2021/07/06 06:59:13;;;;;;;5.70;4.50;;;;;;;23.91;100.00;99523.38;1709835;81;22033;-73
2021/07/06 07:01:40;;;;;;;5.73;4.23;;;;;;;23.97;100.00;99522.74;1739294;80;21321;-73
2021/07/06 07:04:07;;;;;;;7.13;4.60;;;;;;;24.12;100.00;99524.38;1735003;80;21161;-70
2021/07/06 07:06:33;;;;;;;7.13;4.93;;;;;;;24.14;100.00;99520.36;1737918;80;21359;-71
2021/07/06 07:09:01;;;;;;;6.17;3.80;;;;;;;24.12;100.00;99531.83;1737219;80;21547;-71
2021/07/06 07:11:27;;;;;;;4.40;3.80;;;;;;;24.32;100.00;99528.07;1731456;80;21794;-70
2021/07/06 07:13:54;;;;;;;6.30;4.07;;;;;;;24.70;100.00;99531.95;1725033;80;22315;-71
2021/07/06 07:16:21;;;;;;;7.30;3.80;;;;;;;25.10;100.00;99528.31;1737668;80;21180;-72
2021/07/06 07:18:49;;;;;;;7.70;4.70;;;;;;;25.24;100.00;99529.89;1727728;80;20925;-70
2021/07/06 07:21:15;;;;;;;6.33;4.70;;;;;;;25.53;100.00;99524.73;1720671;80;20915;-70
2021/07/06 07:23:42;;;;;;;5.00;4.23;;;;;;;25.91;100.00;99526.61;1729378;80;21442;-66
2021/07/06 07:26:09;;;;;;;4.20;3.80;;;;;;;26.06;100.00;99522.77;1722235;80;21615;-69
2021/07/06 07:28:35;;;;;;;6.47;3.73;;;;;;;25.99;100.00;99524.28;1733193;80;21188;-70
2021/07/06 07:31:02;;;;;;;6.57;4.33;;;;;;;26.03;100.00;99522.61;1735032;80;21040;-67
2021/07/06 07:33:29;;;;;;;7.80;4.67;;;;;;;26.01;100.00;99531.45;1722667;80;21519;-67
2021/07/06 07:35:55;;;;;;;6.83;3.80;;;;;;;26.15;100.00;99539.66;1736335;80;20995;-64
2021/07/06 07:38:22;;;;;;;5.72;3.58;;;;;;;26.10;100.00;99529.63;1731405;80;20966;-70
2021/07/06 07:40:49;;;;;;;4.67;3.90;;;;;;;26.16;100.00;99537.77;1732271;80;22368;-70
2021/07/06 07:43:15;;;;;;;6.50;3.70;;;;;;;26.27;100.00;99539.10;1736765;80;21041;-68
2021/07/06 07:45:42;;;;;;;4.42;3.55;;;;;;;26.36;100.00;99540.48;1733504;80;20998;-69
2021/07/06 07:48:09;;;;;;;6.05;3.55;;;;;;;26.40;100.00;99550.80;1736697;80;21058;-64
2021/07/06 07:50:35;;;;;;;4.22;3.83;;;;;;;26.56;100.00;99535.23;1734717;80;21064;-70
2021/07/06 07:53:02;;;;;;;7.15;4.20;;;;;;;26.68;100.00;99535.44;1738036;80;21120;-71
2021/07/06 07:55:29;;;;;;;4.08;3.62;;;;;;;27.05;100.00;99535.51;1732128;80;20998;-65
2021/07/06 07:57:56;;;;;;;5.25;4.30;;;;;;;27.28;100.00;99530.88;1737092;80;21096;-70
2021/07/06 08:00:23;;;;;;;7.95;4.00;;;;;;;27.81;100.00;99536.55;1722713;80;20963;-68
2021/07/06 08:02:49;;;;;;;4.72;3.90;;;;;;;28.17;100.00;99530.05;1737604;80;22255;-70
2021/07/06 08:05:18;;;;;;;4.47;3.60;;;;;;;28.34;100.00;99535.94;1739105;80;21512;-68
2021/07/06 08:07:45;;;;;;;5.40;4.12;;;;;;;28.76;100.00;99528.11;1743383;80;21052;-69
2021/07/06 08:10:12;;;;;;;7.95;3.92;;;;;;;29.44;100.00;99529.43;1715589;81;22430;-65
2021/07/06 08:12:39;;;;;;;9.38;4.30;;;;;;;29.77;100.00;99522.23;1750206;80;20950;-72
2021/07/06 08:15:07;;;;;;;4.37;3.02;;;;;;;29.87;100.00;99526.98;1750651;80;21147;-72
2021/07/06 08:17:35;;;;;;;4.60;3.42;;;;;;;30.05;100.00;99521.69;1734044;80;21141;-64
2021/07/06 08:20:04;;;;;;;5.00;3.55;;;;;;;29.56;100.00;99520.09;1740026;82;21526;-70
2021/07/06 08:22:34;;;;;;;5.45;3.52;;;;;;;29.61;100.00;99523.16;1741013;80;21507;-69
2021/07/06 08:25:01;;;;;;;9.00;4.10;;;;;;;29.42;100.00;99523.59;1737289;80;21072;-70
2021/07/06 08:27:27;;;;;;;6.87;4.05;;;;;;;29.26;100.00;99533.55;1721381;81;21039;-71
2021/07/06 08:29:56;;;;;;;5.37;3.60;;;;;;;28.90;100.00;99530.00;1719859;82;21006;-70
2021/07/06 08:32:24;;;;;;;6.45;3.40;;;;;;;28.46;100.00;99527.27;1742344;80;20985;-66
2021/07/06 08:34:51;;;;;;;5.00;3.98;;;;;;;28.47;100.00;99526.94;1742629;80;21052;-68
2021/07/06 08:37:17;;;;;;;6.20;3.95;;;;;;;28.72;100.00;99522.60;1734457;82;21575;-69
2021/07/06 08:39:44;;;;;;;7.35;4.45;;;;;;;28.81;100.00;99525.23;1735481;80;20985;-71
2021/07/06 08:42:12;;;;;;;4.60;4.03;;;;;;;28.81;100.00;99525.23;1727431;80;21012;-71
2021/07/06 08:44:39;;;;;;;5.42;4.37;;;;;;;29.04;100.00;99525.23;1741364;82;21041;-71
2021/07/06 08:47:07;;;;;;;5.33;4.15;;;;;;;28.90;100.00;99538.61;1731479;80;21008;-72
2021/07/06 08:49:35;;;;;;;6.70;3.55;;;;;;;29.13;100.00;99530.54;1737392;80;20958;-73
2021/07/06 08:52:03;;;;;;;7.28;3.65;;;;;;;28.94;100.00;99540.31;1733903;80;21047;-66
2021/07/06 08:54:30;;;;;;;4.53;3.80;;;;;;;28.89;100.00;99534.36;1740831;81;21134;-65
2021/07/06 08:56:57;;;;;;;5.37;3.65;;;;;;;28.73;100.00;99530.88;1735136;80;20918;-71
2021/07/06 08:59:23;;;;;;;6.00;4.05;;;;;;;28.32;100.00;99533.56;1729838;82;20922;-71
2021/07/06 09:01:51;;;;;;;6.72;3.62;;;;;;;28.21;100.00;99537.68;1735808;80;21104;-69
2021/07/06 09:04:18;;;;;;;4.05;3.60;;;;;;;27.88;100.00;99543.56;1747765;80;21094;-67
2021/07/06 09:06:57;;;;;;;5.70;4.03;;;;;;;27.70;100.00;99548.64;1745606;80;21145;-69
2021/07/06 09:09:28;;;;;;;4.62;3.95;;;;;;;27.56;100.00;99543.42;1744890;80;21561;-70
2021/07/06 09:11:56;;;;;;;5.97;3.83;;;;;;;27.21;100.00;99557.30;1728955;80;21000;-68
2021/07/06 09:14:29;;;;;;;4.22;3.50;;;;;;;27.09;100.00;99557.08;1746946;80;21490;-65
2021/07/06 09:17:20;;;;;;;6.35;4.42;;;;;;;27.07;100.00;99557.38;1736710;80;21045;-68
2021/07/06 09:19:49;;;;;;;4.50;4.10;;;;;;;27.05;100.00;99560.10;1766918;80;21163;-67
2021/07/06 09:22:26;;;;;;;5.55;3.90;;;;;;;26.86;100.00;99556.36;1737433;81;20995;-67
2021/07/06 09:25:05;;;;;;;6.12;4.20;;;;;;;27.05;100.00;99553.41;1740837;81;20998;-65
2021/07/06 09:27:41;;;;;;;5.90;4.65;;;;;;;27.08;100.00;99557.60;1722545;80;21576;-68
2021/07/06 09:30:19;;;;;;;4.60;3.83;;;;;;;26.68;100.00;99559.50;1752694;80;20927;-66
2021/07/06 09:32:49;;;;;;;5.05;3.90;;;;;;;26.47;100.00;99567.23;1705806;82;21151;-67
2021/07/06 09:35:22;;;;;;;6.67;4.60;;;;;;;26.39;100.00;99574.06;1756820;80;21035;-68
2021/07/06 09:37:58;;;;;;;5.95;3.75;;;;;;;26.24;100.00;99578.44;1751527;80;20963;-66
2021/07/06 09:40:42;;;;;;;6.33;4.10;;;;;;;26.07;100.00;99575.66;1742932;80;21086;-70
2021/07/06 09:43:23;;;;;;;7.13;4.50;;;;;;;25.70;100.00;99574.28;1739731;80;20959;-64
2021/07/06 09:46:09;;;;;;;4.15;3.75;;;;;;;25.52;100.00;99576.53;1754251;80;21124;-69
2021/07/06 09:48:43;;;;;;;7.40;4.67;;;;;;;25.35;100.00;99582.50;1743560;80;20948;-64
2021/07/06 09:51:18;;;;;;;6.30;4.00;;;;;;;25.16;100.00;99579.93;1744362;80;21778;-68
2021/07/06 09:53:54;;;;;;;9.13;4.47;;;;;;;25.10;100.00;99585.65;1751055;80;21565;-69
2021/07/06 09:56:24;;;;;;;6.00;4.50;;;;;;;25.08;100.00;99581.11;1744872;80;20968;-71
2021/07/06 09:59:00;;;;;;;4.80;4.00;;;;;;;25.06;100.00;99579.30;1739770;81;22450;-67
2021/07/06 10:01:27;;;;;;;5.00;4.30;;;;;;;25.10;100.00;99588.31;1757956;81;21454;-67
2021/07/06 10:03:55;;;;;;;7.10;4.37;;;;;;;25.13;100.00;99583.73;1745440;81;21534;-65
2021/07/06 10:06:24;;;;;;;9.33;4.67;;;;;;;24.90;100.00;99603.57;1755439;80;20990;-68
2021/07/06 10:08:52;;;;;;;5.40;4.17;;;;;;;24.91;100.00;99596.36;1772204;80;20987;-67
2021/07/06 10:11:21;;;;;;;6.47;3.80;;;;;;;25.00;100.00;99600.73;1750076;79;21099;-66
2021/07/06 10:13:49;;;;;;;5.23;4.40;;;;;;;25.12;100.00;99610.16;1767576;80;21010;-63
2021/07/06 10:16:18;;;;;;;5.97;3.90;;;;;;;25.22;100.00;99604.06;1764696;79;21148;-67
2021/07/06 10:18:45;;;;;;;7.97;3.93;;;;;;;25.26;100.00;99610.94;1769295;79;21034;-67
2021/07/06 10:21:11;;;;;;;5.07;4.30;;;;;;;25.14;100.00;99618.64;1766385;80;21055;-66
2021/07/06 10:23:41;;;;;;;6.07;4.57;;;;;;;25.18;100.00;99615.62;1765143;80;21101;-64
2021/07/06 10:26:07;;;;;;;5.77;4.67;;;;;;;25.28;100.00;99612.78;1764582;80;21097;-67
2021/07/06 10:28:34;;;;;;;6.43;4.43;;;;;;;25.20;100.00;99620.14;1753810;80;21062;-67
2021/07/06 10:31:16;;;;;;;6.63;4.70;;;;;;;25.18;100.00;99622.30;1697501;82;21030;-68
2021/07/06 10:33:47;;;;;;;6.27;4.43;;;;;;;25.14;100.00;99620.76;1716790;81;21088;-64
2021/07/06 10:36:16;;;;;;;7.17;4.67;;;;;;;25.10;100.00;99628.31;1733055;81;21131;-67
2021/07/06 10:38:45;;;;;;;5.43;4.13;;;;;;;25.17;100.00;99619.39;1722896;81;21519;-68
2021/07/06 10:41:38;;;;;;;6.70;4.75;;;;;;;25.04;100.00;99627.61;1726711;81;21345;-67
2021/07/06 10:44:06;;;;;;;5.77;5.20;;;;;;;25.22;100.00;99628.63;1717347;81;21042;-67
2021/07/06 10:46:49;;;;;;;7.80;4.23;;;;;;;25.17;100.00;99638.84;1737128;81;21851;-70
2021/07/06 10:49:31;;;;;;;7.93;4.97;;;;;;;25.15;100.00;99634.88;1734208;81;21821;-70
2021/07/06 10:51:59;;;;;;;6.60;5.03;;;;;;;25.19;100.00;99642.02;1729682;81;20903;-69
2021/07/06 10:54:32;;;;;;;5.77;4.50;;;;;;;25.24;100.00;99635.80;1719563;81;21026;-67
2021/07/06 10:57:10;;;;;;;5.27;4.33;;;;;;;25.21;100.00;99635.83;1729003;81;20954;-67
2021/07/06 10:59:39;;;;;;;8.70;4.50;;;;;;;25.34;100.00;99644.92;1729301;81;20938;-67
2021/07/06 11:02:26;;;;;;;6.07;4.50;;;;;;;25.22;100.00;99648.08;1724831;81;21155;-67
2021/07/06 11:04:58;;;;;;;9.53;5.10;;;;;;;25.20;100.00;99648.93;1724351;81;21021;-68
2021/07/06 11:07:45;;;;;;;5.77;3.93;;;;;;;25.40;100.00;99638.96;1718145;81;20962;-67
2021/07/06 11:10:11;;;;;;;5.43;4.23;;;;;;;25.28;100.00;99646.12;1714936;81;21182;-66
2021/07/06 11:12:45;;;;;;;5.57;4.40;;;;;;;25.13;100.00;99648.52;1724187;81;21501;-67
2021/07/06 11:15:20;;;;;;;6.90;3.97;;;;;;;25.13;100.00;99646.41;1725332;81;21154;-63
2021/07/06 11:17:48;;;;;;;5.13;4.27;;;;;;;25.14;100.00;99651.43;1726592;81;20982;-67
2021/07/06 11:20:35;;;;;;;6.13;4.60;;;;;;;25.37;100.00;99651.01;1735037;81;21592;-64
2021/07/06 11:23:03;;;;;;;7.77;5.20;;;;;;;25.51;100.00;99655.57;1722979;81;21117;-66
2021/07/06 11:25:37;;;;;;;4.50;4.10;;;;;;;25.28;100.00;99646.12;1731344;81;21104;-66
2021/07/06 11:28:24;;;;;;;5.83;4.10;;;;;;;25.37;100.00;99648.34;1712845;81;21309;-65
2021/07/06 11:30:50;;;;;;;4.95;4.53;;;;;;;25.56;100.00;99651.45;1721483;81;22393;-62
2021/07/06 11:33:39;;;;;;;10.00;5.17;;;;;;;25.78;100.00;99644.08;1730040;81;21033;-66